Terminal Aerodrome Forecast
Issued by NWS Greer, SC

Home | Current Version | Previous Version | Text Only | Print | Product List | Glossary On
Versions: 1 2 3 4 5 6 7 8 9 10 11 12 13 14 15 16
785
FTUS42 KGSP 280521
TAFGSP
TAF
KGSP 280521Z 2806/2906 00000KT 6SM BR FEW110 BKN250
     FM280800 VRB03KT 5SM BR SCT060 BKN250
     FM281300 23005KT P6SM VCSH BKN200
     FM281800 24011KT P6SM BKN150 PROB30 2818/2824 4SM -TSRA
      OVC015CB
     FM290100 23009G16KT P6SM BKN015 PROB30 2901/2906 4SM -TSRA
      OVC007CB=

USA.gov is the U.S. government's official web portal to all federal, state and local government web resources and services.